Airport View

Enter AWOS ICAO identifier for current METAR.

ex. KFNL

KHNZ 191940Z AUTO 00000KT 10SM SCT026 SCT035 SCT042 28/22 A2979 RMK AO2 T02750216

19 Jun 2019 20:00

Frequency: 118.625

Phone: 919-693-9516

Other Area AWOS: KW63 - KTDF - KLHZ - KW78

TAF KRDU 191724Z 1918/2018 23008G15KT P6SM SCT030 BKN090 TEMPO 1918/1922 BKN030 FM192200 22007KT P6SM VCTS SCT040CB BKN120CB FM200100 21003KT P6SM BKN150 FM200500 22004KT P6SM SCT150